Monument Valley, Utah
Current Conditions -  °F | °C
As of 9:35 PM on Wednesday 22 Oct 2014 (Local Time) from KBDG Reporting Station
Clear Clear  
Wind Chill: 11°   Ceiling: Unl
Heat Index: 11°   Visibility: 10mi
Dew Point:   Wind: 7mph
Humidity: 46%   Direction: 10°N
Pressure: 30.27"   Gusts: NA
Location:  37.1°N, 110.32°W
Report Text: KBDG 230335Z AUTO 01006KT 10SM CLR 11/00 A3027 RMK AO1 T01111002
Loading
Personal Weather Stations






























Interactive Weather Map
Tropical Storm Tracking
New forecast layout! Learn more

10-Day Weather Forecast

Advertisements
Track Severe Weather on mobile